createdAt,value
2023-09-29T00:01:34.912Z,98224.22
2023-09-29T00:04:06.279Z,98225.06
2023-09-29T00:06:33.919Z,98228.41
2023-09-29T00:09:13.808Z,98225.75
2023-09-29T00:14:07.262Z,98225.59
2023-09-29T00:16:34.064Z,98228.53
2023-09-29T00:19:00.772Z,98225.59
2023-09-29T00:21:27.381Z,98225.47
2023-09-29T00:23:54.005Z,98218.09
2023-09-29T00:26:21.794Z,98209.47
2023-09-29T00:28:50.057Z,98216.84
2023-09-29T00:31:17.105Z,98219.19
2023-09-29T00:33:43.913Z,98215.72
2023-09-29T00:36:12.712Z,98211.72
2023-09-29T00:38:39.969Z,98209.34
2023-09-29T00:41:07.090Z,98210.19
2023-09-29T00:43:36.574Z,98206.16
2023-09-29T00:46:08.017Z,98207.94
2023-09-29T00:48:36.661Z,98208.47
2023-09-29T00:51:03.642Z,98209.47
2023-09-29T00:53:31.194Z,98205.97
2023-09-29T00:55:58.224Z,98198.75
2023-09-29T00:58:25.367Z,98197.41
2023-09-29T01:00:53.541Z,98193.38
2023-09-29T01:03:20.712Z,98191.56
2023-09-29T01:05:50.916Z,98193.78
2023-09-29T01:08:23.944Z,98189.84
2023-09-29T01:10:51.268Z,98193.19
2023-09-29T01:13:17.990Z,98205.16
2023-09-29T01:15:45.144Z,98184.34
2023-09-29T01:18:12.321Z,98188.50
2023-09-29T01:20:41.436Z,98186.28
2023-09-29T01:23:08.885Z,98185.97
2023-09-29T01:25:36.510Z,98185.84
2023-09-29T01:28:06.832Z,98189.84
2023-09-29T01:30:33.852Z,98183.22
2023-09-29T01:33:01.733Z,98195.09
2023-09-29T01:35:29.006Z,98197.91
2023-09-29T01:37:57.334Z,98196.19
2023-09-29T01:40:24.351Z,98189.53
2023-09-29T01:42:52.257Z,98198.44
2023-09-29T01:45:20.329Z,98192.75
2023-09-29T01:47:48.449Z,98194.78
2023-09-29T01:50:17.523Z,98188.28
2023-09-29T01:52:45.970Z,98189.50
2023-09-29T01:55:20.817Z,98184.50
2023-09-29T01:57:49.012Z,98180.88
2023-09-29T02:00:20.939Z,98194.88
2023-09-29T02:02:49.155Z,98185.03
2023-09-29T02:05:19.902Z,98180.88
2023-09-29T02:07:47.912Z,98187.38
2023-09-29T02:10:20.246Z,98185.56
2023-09-29T02:12:55.740Z,98184.88
2023-09-29T02:15:23.072Z,98181.66
2023-09-29T02:17:50.470Z,98178.91
2023-09-29T02:20:19.623Z,98180.56
2023-09-29T02:22:47.075Z,98181.97
2023-09-29T02:25:16.516Z,98181.38
2023-09-29T02:27:43.927Z,98190.25
2023-09-29T02:30:12.630Z,98184.56
2023-09-29T02:32:42.870Z,98191.88
2023-09-29T02:35:11.603Z,98186.38
2023-09-29T02:37:39.329Z,98186.31
2023-09-29T02:40:12.614Z,98195.69
2023-09-29T02:42:39.999Z,98191.00
2023-09-29T02:45:07.875Z,98187.94
2023-09-29T02:47:35.834Z,98182.94
2023-09-29T02:50:02.674Z,98183.19
2023-09-29T02:52:29.897Z,98181.41
2023-09-29T02:54:56.528Z,98176.78
2023-09-29T02:57:24.420Z,98175.31
2023-09-29T02:59:52.093Z,98180.16
2023-09-29T03:02:18.910Z,98178.63
2023-09-29T03:04:48.121Z,98179.84
2023-09-29T03:07:16.059Z,98180.44
2023-09-29T03:09:42.991Z,98176.28
2023-09-29T03:12:10.005Z,98179.16
2023-09-29T03:14:37.414Z,98179.16
2023-09-29T03:17:04.951Z,98175.25
2023-09-29T03:19:32.274Z,98177.75
2023-09-29T03:21:59.948Z,98182.31
2023-09-29T03:24:30.925Z,98181.69
2023-09-29T03:26:57.968Z,98175.16
2023-09-29T03:29:25.016Z,98175.16
2023-09-29T03:31:54.621Z,98178.50
2023-09-29T03:34:21.849Z,98172.28
2023-09-29T03:36:51.342Z,98180.53
2023-09-29T03:39:19.656Z,98180.88
2023-09-29T03:41:47.055Z,98177.47
2023-09-29T03:44:13.898Z,98172.47
2023-09-29T03:46:40.992Z,98172.00
2023-09-29T03:49:07.842Z,98168.16
2023-09-29T03:51:35.030Z,98172.72
2023-09-29T03:54:01.839Z,98172.66
2023-09-29T03:56:28.654Z,98169.91
2023-09-29T03:58:56.749Z,98188.91
2023-09-29T04:01:23.955Z,98171.84
2023-09-29T04:03:50.823Z,98176.94
2023-09-29T04:06:17.767Z,98182.53
2023-09-29T04:08:44.967Z,98180.19
2023-09-29T04:11:12.016Z,98185.56
2023-09-29T04:13:38.851Z,98172.94
2023-09-29T04:16:08.799Z,98176.72
2023-09-29T04:18:36.749Z,98175.84
2023-09-29T04:21:03.990Z,98181.63
2023-09-29T04:23:31.301Z,98173.50
2023-09-29T04:25:58.141Z,98177.47
2023-09-29T04:28:24.834Z,98183.28
2023-09-29T04:30:51.714Z,98181.91
2023-09-29T04:33:19.937Z,98188.00
2023-09-29T04:35:46.801Z,98179.47
2023-09-29T04:38:13.510Z,98189.63
2023-09-29T04:40:40.175Z,98189.31
2023-09-29T04:43:07.051Z,98189.44
2023-09-29T04:45:35.368Z,98190.03
2023-09-29T04:48:03.054Z,98195.16
2023-09-29T04:50:30.817Z,98189.06
2023-09-29T04:52:57.855Z,98197.19
2023-09-29T04:55:24.604Z,98203.16
2023-09-29T04:57:53.653Z,98199.97
2023-09-29T05:00:20.792Z,98194.81
2023-09-29T05:02:48.004Z,98203.16
2023-09-29T05:05:15.172Z,98196.81
2023-09-29T05:07:44.572Z,98211.56
2023-09-29T05:10:14.907Z,98208.44
2023-09-29T05:12:42.396Z,98211.06
2023-09-29T05:15:09.702Z,98198.50
2023-09-29T05:20:11.863Z,98211.00
2023-09-29T05:22:38.520Z,98211.59
2023-09-29T05:25:05.578Z,98215.78
2023-09-29T05:27:33.349Z,98216.22
2023-09-29T05:30:00.212Z,98221.50
2023-09-29T05:32:27.217Z,98217.75
2023-09-29T05:34:53.855Z,98219.75
2023-09-29T05:37:20.580Z,98219.25
2023-09-29T05:39:47.422Z,98220.53
2023-09-29T05:42:14.259Z,98227.59
2023-09-29T05:44:41.037Z,98223.47
2023-09-29T05:47:07.688Z,98227.44
2023-09-29T05:49:34.329Z,98224.84
2023-09-29T05:52:00.910Z,98227.41
2023-09-29T05:54:27.536Z,98224.06
2023-09-29T05:56:54.228Z,98225.72
2023-09-29T05:59:20.920Z,98230.75
2023-09-29T06:01:47.739Z,98225.16
2023-09-29T06:04:14.450Z,98233.28
2023-09-29T06:06:41.258Z,98235.38
2023-09-29T06:09:08.005Z,98238.59
2023-09-29T06:11:34.727Z,98239.13
2023-09-29T06:14:01.382Z,98237.09
2023-09-29T06:16:28.030Z,98237.50
2023-09-29T06:18:54.709Z,98241.72
2023-09-29T06:21:21.338Z,98244.88
2023-09-29T06:23:47.992Z,98245.16
2023-09-29T06:26:14.622Z,98245.22
2023-09-29T06:28:41.457Z,98253.81
2023-09-29T06:31:08.224Z,98255.53
2023-09-29T06:33:34.945Z,98249.88
2023-09-29T06:36:02.300Z,98253.06
2023-09-29T06:38:30.604Z,98260.97
2023-09-29T06:40:59.713Z,98258.03
2023-09-29T06:43:26.402Z,98254.53
2023-09-29T06:46:01.219Z,98263.78
2023-09-29T06:48:29.098Z,98263.25
2023-09-29T06:51:00.584Z,98263.78
2023-09-29T06:53:29.914Z,98253.91
2023-09-29T06:55:57.490Z,98259.84
2023-09-29T06:58:24.084Z,98257.09
2023-09-29T07:00:52.930Z,98264.72
2023-09-29T07:03:20.312Z,98269.50
2023-09-29T07:05:47.753Z,98261.03
2023-09-29T07:08:14.588Z,98260.53
2023-09-29T07:10:41.593Z,98263.25
2023-09-29T07:13:08.508Z,98261.28
2023-09-29T07:15:35.175Z,98274.38
2023-09-29T07:18:02.190Z,98271.50
2023-09-29T07:20:28.909Z,98262.69
2023-09-29T07:22:55.524Z,98265.88
2023-09-29T07:25:23.636Z,98259.00
2023-09-29T07:27:50.256Z,98261.53
2023-09-29T07:30:16.974Z,98272.50
2023-09-29T07:32:43.659Z,98257.50
2023-09-29T07:35:10.544Z,98250.72
2023-09-29T07:37:39.293Z,98254.34
2023-09-29T07:40:09.920Z,98259.28
2023-09-29T07:42:36.664Z,98244.59
2023-09-29T07:45:04.531Z,98254.78
2023-09-29T07:47:31.431Z,98256.63
2023-09-29T07:49:58.133Z,98247.53
2023-09-29T07:52:29.564Z,98255.97
2023-09-29T07:54:57.186Z,98249.72
2023-09-29T07:57:23.921Z,98244.50
2023-09-29T07:59:50.666Z,98265.56
2023-09-29T08:02:17.307Z,98257.50
2023-09-29T08:04:43.947Z,98258.81
2023-09-29T08:07:11.430Z,98250.34
2023-09-29T08:09:38.261Z,98256.78
2023-09-29T08:12:05.188Z,98255.88
2023-09-29T08:14:32.723Z,98256.78
2023-09-29T08:16:59.639Z,98259.00
2023-09-29T08:19:26.397Z,98261.72
2023-09-29T08:21:53.033Z,98263.66
2023-09-29T08:24:19.668Z,98261.66
2023-09-29T08:26:46.348Z,98264.13
2023-09-29T08:29:17.055Z,98265.06
2023-09-29T08:31:44.744Z,98264.88
2023-09-29T08:34:11.504Z,98267.78
2023-09-29T08:36:38.497Z,98268.16
2023-09-29T08:39:05.224Z,98262.69
2023-09-29T08:41:33.798Z,98261.09
2023-09-29T08:44:07.722Z,98260.72
2023-09-29T08:46:37.998Z,98254.66
2023-09-29T08:49:06.320Z,98249.41
2023-09-29T08:51:34.720Z,98255.84
2023-09-29T08:54:04.191Z,98249.44
2023-09-29T08:56:31.723Z,98250.13
2023-09-29T08:59:01.011Z,98265.34
2023-09-29T09:01:27.914Z,98255.22
2023-09-29T09:03:54.892Z,98252.91
2023-09-29T09:06:23.769Z,98252.34
2023-09-29T09:08:52.986Z,98248.44
2023-09-29T09:11:20.700Z,98251.91
2023-09-29T09:14:00.396Z,98260.47
2023-09-29T09:16:33.134Z,98244.53
2023-09-29T09:19:14.037Z,98245.25
2023-09-29T09:21:42.631Z,98246.94
2023-09-29T09:24:23.263Z,98249.53
2023-09-29T09:26:51.085Z,98241.91
2023-09-29T09:29:18.545Z,98238.31
2023-09-29T09:31:52.375Z,98237.72
2023-09-29T09:34:19.102Z,98244.72
2023-09-29T09:36:51.119Z,98234.78
2023-09-29T09:39:19.677Z,98235.72
2023-09-29T09:41:48.412Z,98234.75
2023-09-29T09:44:15.044Z,98234.81
2023-09-29T09:46:42.150Z,98231.19
2023-09-29T09:49:15.232Z,98234.78
2023-09-29T09:51:48.779Z,98234.16
2023-09-29T09:54:21.005Z,98236.19
2023-09-29T09:56:56.988Z,98228.31
2023-09-29T09:59:24.512Z,98225.31
2023-09-29T10:01:52.473Z,98217.34
2023-09-29T10:04:20.317Z,98228.13
2023-09-29T10:06:47.099Z,98232.53
2023-09-29T10:09:14.569Z,98228.41
2023-09-29T10:11:44.057Z,98227.00
2023-09-29T10:14:11.990Z,98229.69
2023-09-29T10:16:40.015Z,98229.09
2023-09-29T10:19:07.288Z,98220.34
2023-09-29T10:21:46.416Z,98224.03
2023-09-29T10:24:27.468Z,98220.97
2023-09-29T10:26:54.301Z,98216.13
2023-09-29T10:29:26.105Z,98217.25
2023-09-29T10:31:54.324Z,98204.31
2023-09-29T10:34:25.793Z,98208.81
2023-09-29T10:36:57.062Z,98208.25
2023-09-29T10:39:27.870Z,98210.47
2023-09-29T10:42:13.774Z,98208.78
2023-09-29T10:44:47.787Z,98205.47
2023-09-29T10:47:18.063Z,98197.91
2023-09-29T10:49:48.236Z,98200.84
2023-09-29T10:52:20.223Z,98197.28
2023-09-29T10:54:46.917Z,98199.41
2023-09-29T10:57:19.829Z,98192.91
2023-09-29T10:59:50.106Z,98191.50
2023-09-29T11:02:17.572Z,98190.31
2023-09-29T11:04:48.174Z,98188.56
2023-09-29T11:07:18.288Z,98183.41
2023-09-29T11:09:44.944Z,98178.84
2023-09-29T11:12:18.865Z,98171.28
2023-09-29T11:14:45.715Z,98172.06
2023-09-29T11:17:12.466Z,98169.22
2023-09-29T11:19:39.079Z,98161.53
2023-09-29T11:22:07.033Z,98158.13
2023-09-29T11:24:43.635Z,98160.41
2023-09-29T11:27:12.000Z,98155.16
2023-09-29T11:29:39.556Z,98152.78
2023-09-29T11:32:06.259Z,98144.66
2023-09-29T11:34:33.192Z,98141.91
2023-09-29T11:36:59.909Z,98136.78
2023-09-29T11:39:26.585Z,98141.00
2023-09-29T11:41:53.270Z,98137.00
2023-09-29T11:44:20.148Z,98133.78
2023-09-29T11:46:46.856Z,98135.13
2023-09-29T11:49:13.579Z,98129.41
2023-09-29T11:51:40.337Z,98133.28
2023-09-29T11:54:07.465Z,98117.09
2023-09-29T11:56:34.372Z,98125.38
2023-09-29T11:59:01.044Z,98122.75
2023-09-29T12:01:30.692Z,98119.72
2023-09-29T12:03:59.490Z,98121.88
2023-09-29T12:06:26.688Z,98112.78
2023-09-29T12:08:53.383Z,98111.47
2023-09-29T12:11:21.372Z,98108.72
2023-09-29T12:13:49.279Z,98106.84
2023-09-29T12:16:16.488Z,98101.91
2023-09-29T12:18:43.478Z,98106.44
2023-09-29T12:21:11.896Z,98103.03
2023-09-29T12:23:39.790Z,98094.25
2023-09-29T12:26:07.432Z,98093.72
2023-09-29T12:28:36.461Z,98099.16
2023-09-29T12:31:04.133Z,98092.59
2023-09-29T12:33:31.251Z,98093.69
2023-09-29T12:35:58.033Z,98090.44
2023-09-29T12:38:24.693Z,98084.97
2023-09-29T12:40:51.369Z,98083.28
2023-09-29T12:43:17.994Z,98075.84
2023-09-29T12:45:45.409Z,98081.03
2023-09-29T12:48:12.259Z,98072.44
2023-09-29T12:50:40.736Z,98070.47
2023-09-29T12:53:07.897Z,98073.88
2023-09-29T12:55:34.566Z,98069.56
2023-09-29T12:58:05.802Z,98065.47
2023-09-29T13:00:35.487Z,98068.88
2023-09-29T13:03:06.295Z,98058.06
2023-09-29T13:05:34.133Z,98058.63
2023-09-29T13:08:04.675Z,98057.06
2023-09-29T13:10:32.414Z,98041.59
2023-09-29T13:12:59.231Z,98043.72
2023-09-29T13:15:26.687Z,98048.81
2023-09-29T13:17:54.431Z,98043.38
2023-09-29T13:20:22.053Z,98041.16
2023-09-29T13:22:51.973Z,98044.00
2023-09-29T13:25:19.364Z,98040.94
2023-09-29T13:27:46.265Z,98037.97
2023-09-29T13:30:14.984Z,98035.72
2023-09-29T13:32:41.934Z,98037.06
2023-09-29T13:35:09.542Z,98035.88
2023-09-29T13:37:37.653Z,98027.16
2023-09-29T13:40:07.269Z,98030.91
2023-09-29T13:42:36.375Z,98026.41
2023-09-29T13:45:06.833Z,98028.94
2023-09-29T13:47:34.583Z,98026.69
2023-09-29T13:50:02.054Z,98025.84
2023-09-29T13:52:29.292Z,98023.91
2023-09-29T13:54:56.126Z,98024.09
2023-09-29T13:57:23.801Z,98029.91
2023-09-29T13:59:50.974Z,98015.88
2023-09-29T14:02:17.786Z,98022.81
2023-09-29T14:04:46.026Z,98019.16
2023-09-29T14:07:13.206Z,98009.13
2023-09-29T14:09:40.958Z,98010.63
2023-09-29T14:12:09.952Z,97999.34
2023-09-29T14:14:37.362Z,98005.22
2023-09-29T14:17:06.203Z,97998.97
2023-09-29T14:19:33.604Z,98006.81
2023-09-29T14:22:00.416Z,97998.22
2023-09-29T14:24:27.063Z,97994.69
2023-09-29T14:26:54.151Z,97994.97
2023-09-29T14:29:21.290Z,97995.34
2023-09-29T14:31:48.551Z,98000.50
2023-09-29T14:34:16.933Z,97991.78
2023-09-29T14:36:44.503Z,97984.13
2023-09-29T14:39:12.020Z,97984.69
2023-09-29T14:41:39.089Z,97992.34
2023-09-29T14:44:06.853Z,97984.13
2023-09-29T14:46:33.720Z,97984.66
2023-09-29T14:49:01.685Z,97984.38
2023-09-29T14:51:28.413Z,97995.59
2023-09-29T14:53:55.641Z,97985.06
2023-09-29T14:56:22.599Z,97981.66
2023-09-29T14:58:49.274Z,97991.47
2023-09-29T15:01:15.970Z,97988.00
2023-09-29T15:03:42.847Z,97991.97
2023-09-29T15:06:14.044Z,97982.31
2023-09-29T15:08:41.837Z,97988.81
2023-09-29T15:11:08.991Z,97990.44
2023-09-29T15:13:36.016Z,97977.34
2023-09-29T15:16:02.775Z,97983.22
2023-09-29T15:18:29.599Z,97989.09
2023-09-29T15:20:56.344Z,97983.28
2023-09-29T15:23:23.025Z,97977.16
2023-09-29T15:25:53.235Z,97978.44
2023-09-29T15:28:20.530Z,97981.44
2023-09-29T15:30:48.506Z,97984.16
2023-09-29T15:33:16.616Z,97987.53
2023-09-29T15:35:57.038Z,97990.28
2023-09-29T15:38:24.421Z,98001.25
2023-09-29T15:40:54.934Z,98002.31
2023-09-29T15:43:22.472Z,97994.50
2023-09-29T15:45:50.326Z,97996.19
2023-09-29T15:48:17.300Z,97999.81
2023-09-29T15:50:44.645Z,97994.97
2023-09-29T15:53:15.972Z,97992.91
2023-09-29T15:55:45.991Z,97996.31
2023-09-29T15:58:12.713Z,97990.56
2023-09-29T16:00:39.539Z,97997.06
2023-09-29T16:03:07.637Z,97999.63
2023-09-29T16:05:35.409Z,97996.03
2023-09-29T16:08:02.107Z,97995.06
2023-09-29T16:10:29.732Z,98004.75
2023-09-29T16:12:56.963Z,98007.56
2023-09-29T16:15:23.711Z,98004.94
2023-09-29T16:17:50.955Z,98012.66
2023-09-29T16:20:17.942Z,98010.38
2023-09-29T16:22:44.683Z,98001.06
2023-09-29T16:25:12.569Z,98013.34
2023-09-29T16:27:39.496Z,98011.06
2023-09-29T16:30:06.966Z,98013.22
2023-09-29T16:32:33.718Z,98026.94
2023-09-29T16:35:01.503Z,98023.53
2023-09-29T16:37:28.227Z,98025.94
2023-09-29T16:39:55.474Z,98025.44
2023-09-29T16:42:23.470Z,98035.81
2023-09-29T16:44:52.171Z,98032.38
2023-09-29T16:47:20.078Z,98024.47
2023-09-29T16:49:48.847Z,98032.28
2023-09-29T16:52:15.602Z,98027.19
2023-09-29T16:54:44.302Z,98029.63
2023-09-29T16:57:11.297Z,98029.94
2023-09-29T16:59:38.000Z,98038.41
2023-09-29T17:02:04.743Z,98036.50
2023-09-29T17:04:31.530Z,98035.38
2023-09-29T17:06:58.281Z,98040.03
2023-09-29T17:09:24.954Z,98042.25
2023-09-29T17:11:52.501Z,98048.69
2023-09-29T17:14:19.274Z,98047.66
2023-09-29T17:16:46.047Z,98043.16
2023-09-29T17:19:12.713Z,98054.25
2023-09-29T17:21:39.457Z,98052.47
2023-09-29T17:24:07.551Z,98048.78
2023-09-29T17:26:34.319Z,98060.44
2023-09-29T17:29:00.941Z,98057.84
2023-09-29T17:31:29.125Z,98065.34
2023-09-29T17:33:56.580Z,98063.69
2023-09-29T17:36:23.657Z,98058.78
2023-09-29T17:38:53.690Z,98051.13
2023-09-29T17:41:20.475Z,98056.03
2023-09-29T17:43:47.110Z,98064.13
2023-09-29T17:46:13.797Z,98061.94
2023-09-29T17:48:44.086Z,98056.75
2023-09-29T17:51:12.878Z,98061.00
2023-09-29T17:53:40.414Z,98053.03
2023-09-29T17:56:07.998Z,98058.75
2023-09-29T17:58:35.143Z,98054.47
2023-09-29T18:01:06.077Z,98057.44
2023-09-29T18:03:33.553Z,98070.25
2023-09-29T18:06:00.912Z,98072.25
2023-09-29T18:08:27.555Z,98065.81
2023-09-29T18:10:54.605Z,98073.72
2023-09-29T18:13:23.626Z,98062.47
2023-09-29T18:15:50.237Z,98079.16
2023-09-29T18:18:17.122Z,98068.72
2023-09-29T18:20:43.756Z,98069.22
2023-09-29T18:23:10.485Z,98070.94
2023-09-29T18:25:37.082Z,98080.25
2023-09-29T18:28:05.957Z,98080.09
2023-09-29T18:30:33.578Z,98086.28
2023-09-29T18:33:00.840Z,98085.94
2023-09-29T18:35:27.614Z,98083.81
2023-09-29T18:37:55.243Z,98083.28
2023-09-29T18:40:21.904Z,98086.28
2023-09-29T18:42:49.539Z,98086.47
2023-09-29T18:45:16.817Z,98095.44
2023-09-29T18:47:43.865Z,98097.91
2023-09-29T18:50:12.744Z,98091.25
2023-09-29T18:52:40.700Z,98103.22
2023-09-29T18:55:08.173Z,98095.94
2023-09-29T18:57:35.060Z,98105.22
2023-09-29T19:00:02.774Z,98103.72
2023-09-29T19:02:29.870Z,98109.03
2023-09-29T19:04:56.598Z,98108.66
2023-09-29T19:07:23.248Z,98111.97
2023-09-29T19:09:50.063Z,98108.00
2023-09-29T19:12:16.869Z,98113.97
2023-09-29T19:14:43.896Z,98114.09
2023-09-29T19:17:10.670Z,98106.66
2023-09-29T19:19:37.389Z,98106.34
2023-09-29T19:22:04.108Z,98112.13
2023-09-29T19:24:30.839Z,98110.47
2023-09-29T19:26:57.600Z,98116.72
2023-09-29T19:29:24.269Z,98113.09
2023-09-29T19:31:51.056Z,98112.59
2023-09-29T19:34:17.946Z,98105.94
2023-09-29T19:36:44.664Z,98111.72
2023-09-29T19:39:11.407Z,98119.34
2023-09-29T19:41:38.209Z,98117.84
2023-09-29T19:44:05.169Z,98117.50
2023-09-29T19:46:36.255Z,98117.31
2023-09-29T19:49:05.135Z,98116.31
2023-09-29T19:51:32.078Z,98121.25
2023-09-29T19:53:59.749Z,98120.72
2023-09-29T19:56:34.218Z,98123.88
2023-09-29T19:59:01.747Z,98125.69
2023-09-29T20:01:28.983Z,98122.91
2023-09-29T20:03:56.280Z,98131.50
2023-09-29T20:06:24.323Z,98128.69
2023-09-29T20:08:53.847Z,98130.63
2023-09-29T20:11:21.872Z,98132.94
2023-09-29T20:13:48.570Z,98124.22
2023-09-29T20:16:19.003Z,98131.03
2023-09-29T20:18:46.345Z,98125.38
2023-09-29T20:21:13.418Z,98121.38
2023-09-29T20:23:40.351Z,98129.63
2023-09-29T20:26:07.050Z,98131.25
2023-09-29T20:28:34.814Z,98132.84
2023-09-29T20:31:04.303Z,98126.19
2023-09-29T20:33:31.050Z,98128.16
2023-09-29T20:35:58.827Z,98125.03
2023-09-29T20:38:25.465Z,98125.88
2023-09-29T20:40:52.381Z,98119.22
2023-09-29T20:43:19.020Z,98122.72
2023-09-29T20:45:47.063Z,98123.69
2023-09-29T20:48:14.921Z,98128.09
2023-09-29T20:50:42.586Z,98125.44
2023-09-29T20:53:12.891Z,98120.91
2023-09-29T20:55:40.065Z,98122.75
2023-09-29T20:58:06.960Z,98118.06
2023-09-29T21:00:34.172Z,98129.56
2023-09-29T21:03:01.472Z,98126.78
2023-09-29T21:05:28.760Z,98126.06
2023-09-29T21:07:55.556Z,98131.97
2023-09-29T21:10:22.315Z,98127.44
2023-09-29T21:12:49.519Z,98127.59
2023-09-29T21:15:16.661Z,98131.06
2023-09-29T21:17:43.757Z,98126.22
2023-09-29T21:20:12.355Z,98122.16
2023-09-29T21:22:42.866Z,98129.75
2023-09-29T21:25:11.828Z,98128.31
2023-09-29T21:27:39.034Z,98131.00
2023-09-29T21:30:09.370Z,98123.53
2023-09-29T21:32:38.023Z,98130.88
2023-09-29T21:35:05.965Z,98129.81
2023-09-29T21:37:32.957Z,98126.41
2023-09-29T21:39:59.689Z,98132.09
2023-09-29T21:42:26.378Z,98127.47
2023-09-29T21:44:53.008Z,98133.50
2023-09-29T21:47:19.667Z,98133.66
2023-09-29T21:49:46.584Z,98132.91
2023-09-29T21:52:13.607Z,98130.88
2023-09-29T21:54:40.468Z,98124.75
2023-09-29T21:57:08.659Z,98128.00
2023-09-29T21:59:35.611Z,98122.84
2023-09-29T22:02:02.625Z,98128.03
2023-09-29T22:04:30.723Z,98129.97
2023-09-29T22:06:57.837Z,98134.75
2023-09-29T22:09:24.695Z,98127.50
2023-09-29T22:11:51.459Z,98124.53
2023-09-29T22:14:19.115Z,98132.47
2023-09-29T22:16:46.626Z,98132.84
2023-09-29T22:19:14.157Z,98134.50
2023-09-29T22:21:41.030Z,98139.81
2023-09-29T22:24:07.893Z,98133.16
2023-09-29T22:26:36.620Z,98126.81
2023-09-29T22:29:04.400Z,98133.38
2023-09-29T22:33:58.772Z,98132.97
2023-09-29T22:36:25.830Z,98139.13
2023-09-29T22:38:53.224Z,98133.16
2023-09-29T22:41:21.082Z,98135.28
2023-09-29T22:43:48.175Z,98135.00
2023-09-29T22:46:14.853Z,98134.03
2023-09-29T22:48:41.525Z,98134.97
2023-09-29T22:51:08.341Z,98140.56
2023-09-29T22:53:36.069Z,98147.88
2023-09-29T22:56:11.220Z,98144.41
2023-09-29T22:58:38.743Z,98146.09
2023-09-29T23:01:05.710Z,98148.63
2023-09-29T23:03:32.505Z,98133.59
2023-09-29T23:06:02.673Z,98133.00
2023-09-29T23:08:30.823Z,98137.53
2023-09-29T23:10:57.454Z,98134.19
2023-09-29T23:13:25.097Z,98132.06
2023-09-29T23:15:52.034Z,98134.75
2023-09-29T23:18:18.679Z,98133.56
2023-09-29T23:20:45.289Z,98128.94
2023-09-29T23:23:11.888Z,98126.06
2023-09-29T23:25:39.162Z,98127.16
2023-09-29T23:28:06.078Z,98126.94
2023-09-29T23:30:36.673Z,98129.53
2023-09-29T23:33:05.081Z,98124.63
2023-09-29T23:35:32.209Z,98125.06
2023-09-29T23:37:59.361Z,98124.81
2023-09-29T23:40:26.001Z,98120.78
2023-09-29T23:42:52.676Z,98120.22
2023-09-29T23:45:19.304Z,98122.03
2023-09-29T23:47:48.212Z,98124.06
2023-09-29T23:50:15.210Z,98122.88
2023-09-29T23:52:41.898Z,98126.50
2023-09-29T23:55:09.898Z,98117.59
2023-09-29T23:57:37.185Z,98117.84
